Time;durP1;ratioP1;P1;durP2;ratioP2;P2;SDS_P1;SDS_P2;PMS_P1;PMS_P2;Temp;Humidity;BMP_temperature;BMP_pressure;BME280_temperature;BME280_humidity;BME280_pressure;Samples;Min_cycle;Max_cycle;Signal;HPM_P1;HPM_P2
2022/02/18 00:03:15;;;;;;;20.63;4.28;;;;;;;4.82;100.00;100471.66;10194638;28;20053;-66
2022/02/18 00:08:12;;;;;;;18.60;2.97;;;;;;;4.84;100.00;100469.47;10187257;28;20045;-66
2022/02/18 00:13:09;;;;;;;31.35;5.65;;;;;;;4.72;100.00;100474.47;10192711;28;20050;-67
2022/02/18 00:18:06;;;;;;;17.38;2.47;;;;;;;4.67;100.00;100482.63;10177743;28;20050;-67
2022/02/18 00:23:05;;;;;;;24.48;3.30;;;;;;;4.70;100.00;100478.56;10192898;28;20519;-67
2022/02/18 00:28:03;;;;;;;27.00;3.22;;;;;;;4.63;100.00;100503.25;10189176;28;20076;-67
2022/02/18 00:33:00;;;;;;;23.88;2.60;;;;;;;4.64;100.00;100496.72;10194133;28;20049;-66
2022/02/18 00:37:56;;;;;;;20.00;3.60;;;;;;;4.64;100.00;100502.97;10177514;28;20042;-66
2022/02/18 00:42:54;;;;;;;17.70;2.20;;;;;;;4.64;100.00;100502.13;10193458;28;20054;-64
2022/02/18 00:47:51;;;;;;;23.27;3.42;;;;;;;4.69;100.00;100510.25;10184897;28;20045;-63
2022/02/18 00:52:48;;;;;;;17.02;4.20;;;;;;;4.67;100.00;100498.88;10194284;28;20050;-62
2022/02/18 00:57:44;;;;;;;28.50;4.10;;;;;;;4.64;100.00;100507.56;10185059;28;20053;-62
2022/02/18 01:02:41;;;;;;;13.55;3.20;;;;;;;4.63;100.00;100533.03;10192931;28;20042;-65
2022/02/18 01:07:38;;;;;;;19.63;2.78;;;;;;;4.65;100.00;100520.03;10186865;28;20049;-65
2022/02/18 01:12:34;;;;;;;23.98;3.53;;;;;;;4.68;100.00;100530.28;10184571;28;20070;-63
2022/02/18 01:17:33;;;;;;;12.60;1.88;;;;;;;4.62;100.00;100520.59;10191828;28;20042;-63
2022/02/18 01:22:30;;;;;;;14.40;2.55;;;;;;;4.60;100.00;100560.69;10191603;28;20566;-66
2022/02/18 01:27:26;;;;;;;20.42;2.75;;;;;;;4.57;100.00;100544.97;10169895;28;20649;-65
2022/02/18 01:32:23;;;;;;;23.30;3.50;;;;;;;4.50;100.00;100547.19;10211835;28;20491;-65
2022/02/18 01:37:19;;;;;;;20.77;3.58;;;;;;;4.38;100.00;100537.53;10203424;28;20049;-65
2022/02/18 01:42:15;;;;;;;21.90;3.15;;;;;;;4.33;100.00;100539.47;10199795;28;20061;-65
2022/02/18 01:47:16;;;;;;;17.35;2.67;;;;;;;4.30;100.00;100532.72;10197852;28;20080;-64
2022/02/18 01:52:14;;;;;;;13.57;1.90;;;;;;;4.23;100.00;100529.53;10199526;28;20100;-66
2022/02/18 01:57:12;;;;;;;17.67;2.03;;;;;;;4.18;100.00;100532.25;10194971;28;20403;-66
2022/02/18 02:02:09;;;;;;;18.67;2.53;;;;;;;4.15;100.00;100533.59;10200949;28;20392;-66
2022/02/18 02:07:06;;;;;;;17.33;2.83;;;;;;;4.13;100.00;100524.16;10183939;28;20077;-68
2022/02/18 02:12:04;;;;;;;18.83;2.72;;;;;;;4.11;100.00;100515.53;10198583;28;20530;-67
2022/02/18 02:17:00;;;;;;;17.02;2.75;;;;;;;4.07;100.00;100503.63;10194921;28;20096;-67
2022/02/18 02:21:57;;;;;;;18.17;2.42;;;;;;;3.98;100.00;100501.50;10197283;28;20038;-67
2022/02/18 02:26:54;;;;;;;16.42;3.50;;;;;;;3.97;100.00;100516.13;10194618;28;20046;-65
2022/02/18 02:31:50;;;;;;;27.20;2.63;;;;;;;3.87;100.00;100516.16;10197471;28;20046;-66
2022/02/18 02:36:46;;;;;;;23.95;2.70;;;;;;;3.81;100.00;100517.28;10195379;28;20144;-67
2022/02/18 02:41:43;;;;;;;18.98;2.40;;;;;;;3.74;100.00;100527.59;10201899;28;20464;-67
2022/02/18 02:46:39;;;;;;;19.92;2.92;;;;;;;3.69;100.00;100530.31;10180029;28;20054;-66
2022/02/18 02:51:38;;;;;;;24.55;2.78;;;;;;;3.63;100.00;100542.25;10200459;28;20412;-65
2022/02/18 02:56:35;;;;;;;17.98;2.33;;;;;;;3.67;100.00;100537.91;10191178;28;20046;-67
2022/02/18 03:01:31;;;;;;;28.23;3.03;;;;;;;3.65;100.00;100542.78;10190870;28;20508;-67
2022/02/18 03:06:28;;;;;;;25.70;3.45;;;;;;;3.66;100.00;100547.09;10193199;28;20046;-67
2022/02/18 03:11:24;;;;;;;23.60;3.30;;;;;;;3.64;100.00;100533.03;10194273;28;20042;-67
2022/02/18 03:16:21;;;;;;;18.20;2.72;;;;;;;3.61;100.00;100544.41;10194378;28;20046;-67
2022/02/18 03:21:18;;;;;;;20.42;2.70;;;;;;;3.59;100.00;100540.06;10192781;28;20511;-65
2022/02/18 03:26:15;;;;;;;30.35;3.90;;;;;;;3.61;100.00;100549.81;10187179;28;20042;-67
2022/02/18 03:31:12;;;;;;;20.95;3.25;;;;;;;3.59;100.00;100547.38;10195173;28;20073;-66
2022/02/18 03:36:09;;;;;;;19.15;2.40;;;;;;;3.62;100.00;100549.56;10189031;28;20042;-64
2022/02/18 03:41:06;;;;;;;22.25;3.13;;;;;;;3.61;100.00;100555.22;10197281;28;20053;-63
2022/02/18 03:46:03;;;;;;;22.33;2.45;;;;;;;3.59;100.00;100542.78;10186762;28;20133;-63
2022/02/18 03:51:00;;;;;;;22.58;3.45;;;;;;;3.61;100.00;100539.00;10206665;28;20574;-64
2022/02/18 03:55:59;;;;;;;16.90;2.35;;;;;;;3.58;100.00;100530.34;10189932;28;20104;-66
2022/02/18 04:00:56;;;;;;;17.00;2.25;;;;;;;3.58;100.00;100546.56;10205282;28;20050;-65
2022/02/18 04:05:52;;;;;;;27.38;2.58;;;;;;;3.59;100.00;100531.97;10175339;28;20037;-66
2022/02/18 04:10:49;;;;;;;21.52;3.78;;;;;;;3.55;100.00;100525.50;10192813;28;20104;-66
2022/02/18 04:15:46;;;;;;;26.23;3.65;;;;;;;3.62;100.00;100513.56;10193725;28;20129;-66
2022/02/18 04:20:42;;;;;;;24.98;2.95;;;;;;;3.53;100.00;100538.47;10184963;28;20057;-66
2022/02/18 04:25:58;;;;;;;20.08;2.67;;;;;;;3.57;100.00;100550.38;10178874;28;20137;-66
2022/02/18 04:30:55;;;;;;;19.85;3.00;;;;;;;3.60;100.00;100546.31;10191084;28;20065;-63
2022/02/18 04:35:51;;;;;;;19.33;1.92;;;;;;;3.63;100.00;100558.47;10189791;28;20038;-62
2022/02/18 04:40:48;;;;;;;18.45;3.35;;;;;;;3.61;100.00;100539.81;10190677;28;20069;-63
2022/02/18 04:45:44;;;;;;;24.77;3.00;;;;;;;3.64;100.00;100539.25;10183506;28;20080;-63
2022/02/18 04:50:41;;;;;;;22.45;2.35;;;;;;;3.64;100.00;100533.03;10203746;28;20046;-63
2022/02/18 04:55:57;;;;;;;15.43;2.08;;;;;;;3.68;100.00;100537.63;10178881;28;20597;-65
2022/02/18 05:00:54;;;;;;;16.98;2.67;;;;;;;3.67;100.00;100527.09;10190834;28;20046;-65
2022/02/18 05:05:50;;;;;;;15.55;2.53;;;;;;;3.73;100.00;100520.56;10178311;28;20430;-65
2022/02/18 05:10:47;;;;;;;10.15;2.35;;;;;;;3.74;100.00;100511.38;10196789;28;20471;-65
2022/02/18 05:15:44;;;;;;;16.77;2.67;;;;;;;3.76;100.00;100506.47;10174998;28;20073;-67
2022/02/18 05:20:40;;;;;;;8.88;2.03;;;;;;;3.79;100.00;100495.94;10183067;28;20108;-66
2022/02/18 05:25:37;;;;;;;19.58;3.13;;;;;;;3.84;100.00;100483.47;10171203;28;20532;-64
2022/02/18 05:30:34;;;;;;;16.00;2.63;;;;;;;3.80;100.00;100483.19;10181572;28;20478;-65
2022/02/18 05:35:31;;;;;;;19.50;2.60;;;;;;;3.89;100.00;100470.72;10191485;28;20046;-69
2022/02/18 05:40:28;;;;;;;26.70;2.75;;;;;;;3.85;100.00;100475.06;10226753;28;20042;-68
2022/02/18 05:45:24;;;;;;;25.20;3.25;;;;;;;3.92;100.00;100462.06;10182119;28;20460;-70
2022/02/18 05:50:21;;;;;;;18.83;3.03;;;;;;;3.97;100.00;100466.63;10195656;28;20072;-72
2022/02/18 05:55:17;;;;;;;18.77;3.60;;;;;;;3.96;100.00;100446.06;10178745;28;20466;-72
2022/02/18 06:00:14;;;;;;;19.10;3.72;;;;;;;3.96;100.00;100438.75;10174609;28;20540;-71
2022/02/18 06:05:11;;;;;;;15.25;3.30;;;;;;;3.96;100.00;100433.34;10172147;28;20050;-72
2022/02/18 06:10:10;;;;;;;26.55;3.35;;;;;;;3.97;100.00;100429.56;10188412;28;20042;-71
2022/02/18 06:15:07;;;;;;;14.95;2.67;;;;;;;3.97;100.00;100421.44;10182737;28;20051;-72
2022/02/18 06:20:07;;;;;;;11.82;2.78;;;;;;;3.97;100.00;100399.00;10192116;28;20085;-72
2022/02/18 06:25:08;;;;;;;21.27;3.97;;;;;;;3.98;100.00;100390.59;10192732;28;20050;-72
2022/02/18 06:30:06;;;;;;;16.50;3.47;;;;;;;4.00;100.00;100391.13;10184014;28;20528;-72
2022/02/18 06:35:03;;;;;;;20.73;3.60;;;;;;;3.98;100.00;100371.66;10191388;28;20085;-72
2022/02/18 06:39:59;;;;;;;25.08;3.97;;;;;;;4.00;100.00;100391.13;10206119;28;20104;-72
2022/02/18 06:44:56;;;;;;;23.40;3.75;;;;;;;3.96;100.00;100379.25;10191993;28;20104;-71
2022/02/18 06:49:52;;;;;;;15.30;3.45;;;;;;;4.00;100.00;100369.47;10199466;28;20508;-72
2022/02/18 06:54:49;;;;;;;22.20;4.57;;;;;;;4.03;100.00;100359.19;10191488;28;20516;-72
2022/02/18 06:59:45;;;;;;;20.13;3.80;;;;;;;4.04;100.00;100353.50;10188487;28;20502;-71
2022/02/18 07:04:42;;;;;;;18.67;3.60;;;;;;;4.13;100.00;100353.69;10188899;28;20053;-71
2022/02/18 07:09:38;;;;;;;22.35;3.97;;;;;;;4.19;100.00;100344.44;10186846;28;20058;-71
2022/02/18 07:14:35;;;;;;;18.75;5.10;;;;;;;4.25;100.00;100329.78;10194684;28;20050;-72
2022/02/18 07:19:34;;;;;;;15.43;4.00;;;;;;;4.24;100.00;100325.44;10165353;28;20046;-71
2022/02/18 07:24:31;;;;;;;24.23;3.90;;;;;;;4.31;100.00;100325.13;10159411;28;20569;-71
2022/02/18 07:29:27;;;;;;;15.18;3.75;;;;;;;4.34;100.00;100303.72;10191716;28;20042;-71
2022/02/18 07:34:28;;;;;;;17.70;4.15;;;;;;;4.39;100.00;100311.78;10191678;28;20092;-71
2022/02/18 07:39:25;;;;;;;22.65;5.50;;;;;;;4.43;100.00;100306.56;10214695;28;20046;-74
2022/02/18 07:44:22;;;;;;;17.15;3.88;;;;;;;4.47;100.00;100296.78;10205043;28;20100;-74
2022/02/18 07:49:19;;;;;;;25.25;4.90;;;;;;;4.51;100.00;100272.69;10202827;28;20104;-74
2022/02/18 07:54:15;;;;;;;25.17;6.18;;;;;;;4.54;100.00;100282.91;10200473;28;20096;-74
2022/02/18 07:59:12;;;;;;;24.23;5.05;;;;;;;4.66;100.00;100272.47;10165174;28;20073;-74
2022/02/18 08:04:08;;;;;;;28.05;4.93;;;;;;;4.70;100.00;100254.56;10189365;28;20096;-74
2022/02/18 08:09:05;;;;;;;16.75;4.68;;;;;;;4.73;100.00;100235.03;10190549;28;20534;-74
2022/02/18 08:14:01;;;;;;;25.48;4.55;;;;;;;4.74;100.00;100225.00;10193159;28;20080;-74
2022/02/18 08:18:59;;;;;;;22.05;4.95;;;;;;;4.81;100.00;100220.84;10183397;28;20072;-74
2022/02/18 08:23:55;;;;;;;21.67;4.07;;;;;;;4.81;100.00;100207.28;10175287;28;20140;-74
2022/02/18 08:28:52;;;;;;;19.63;4.00;;;;;;;4.87;100.00;100196.38;10163609;28;20090;-74
2022/02/18 08:33:48;;;;;;;17.83;4.05;;;;;;;4.79;100.00;100176.19;10164700;28;20535;-74
2022/02/18 08:38:45;;;;;;;12.85;4.15;;;;;;;4.83;100.00;100164.47;10206251;28;20135;-74
2022/02/18 08:43:41;;;;;;;22.17;4.43;;;;;;;4.92;100.00;100155.66;10161629;28;20066;-75
2022/02/18 08:48:38;;;;;;;25.30;4.40;;;;;;;5.00;100.00;100130.63;10192575;28;20496;-75
2022/02/18 08:53:34;;;;;;;16.75;4.18;;;;;;;5.04;100.00;100120.81;10165403;28;20463;-75
2022/02/18 08:58:31;;;;;;;15.60;3.80;;;;;;;5.08;100.00;100100.16;10190062;28;20041;-74
2022/02/18 09:03:29;;;;;;;11.98;3.63;;;;;;;4.98;100.00;100094.91;10192204;28;20042;-75
2022/02/18 09:08:26;;;;;;;18.92;4.88;;;;;;;4.99;100.00;100075.66;10181888;28;20053;-74
2022/02/18 09:13:25;;;;;;;23.42;5.05;;;;;;;5.06;100.00;100059.03;10189247;28;20046;-75
2022/02/18 09:18:22;;;;;;;22.65;5.07;;;;;;;5.02;100.00;100047.97;10180372;28;20104;-75
2022/02/18 09:23:18;;;;;;;20.45;4.93;;;;;;;5.08;100.00;100040.53;10191924;28;20104;-74
2022/02/18 09:28:15;;;;;;;22.10;5.35;;;;;;;5.07;100.00;100006.41;10189587;28;20550;-75
2022/02/18 09:33:12;;;;;;;21.73;5.28;;;;;;;5.13;100.00;99948.34;10191038;28;20053;-75
2022/02/18 09:38:10;;;;;;;19.50;5.60;;;;;;;5.27;100.00;99951.06;10201378;28;20099;-74
2022/02/18 09:43:07;;;;;;;19.95;5.63;;;;;;;5.26;100.00;99938.59;10209639;28;20050;-75
2022/02/18 09:48:05;;;;;;;20.27;6.53;;;;;;;5.14;100.00;99924.75;10188376;28;20053;-74
2022/02/18 09:53:02;;;;;;;30.40;10.73;;;;;;;5.23;100.00;99899.34;10191076;28;20111;-74
2022/02/18 09:57:59;;;;;;;23.70;6.30;;;;;;;5.21;100.00;99885.28;10183357;28;20098;-75
2022/02/18 10:02:58;;;;;;;29.85;7.50;;;;;;;5.19;100.00;99884.78;10198108;28;20054;-75
2022/02/18 10:08:22;;;;;;;22.13;6.90;;;;;;;5.10;100.00;99866.81;10188520;28;20045;-75
2022/02/18 10:13:40;;;;;;;23.50;6.50;;;;;;;5.16;100.00;99831.19;10195533;28;20529;-75
2022/02/18 10:19:01;;;;;;;19.95;7.25;;;;;;;5.22;100.00;99808.31;10163909;28;20129;-75
2022/02/18 10:24:06;;;;;;;24.80;6.75;;;;;;;5.22;100.00;99781.22;10157629;28;20088;-75
2022/02/18 10:29:04;;;;;;;17.75;5.30;;;;;;;5.24;100.00;99756.50;10166907;28;20105;-75
2022/02/18 10:34:10;;;;;;;18.08;5.75;;;;;;;5.27;100.00;99732.31;10165463;28;20069;-75
2022/02/18 10:39:27;;;;;;;15.73;5.18;;;;;;;5.34;100.00;99714.78;10220015;28;20390;-74
2022/02/18 10:44:25;;;;;;;24.27;7.30;;;;;;;5.34;100.00;99688.50;10208734;28;20053;-73
2022/02/18 10:49:24;;;;;;;22.85;5.63;;;;;;;5.24;100.00;99648.91;10196479;28;20069;-75
2022/02/18 10:54:32;;;;;;;17.33;5.18;;;;;;;5.28;100.00;99649.06;10195081;28;20053;-75
2022/02/18 10:59:30;;;;;;;12.43;5.20;;;;;;;5.16;100.00;99624.44;10163215;28;20554;-75
2022/02/18 11:04:27;;;;;;;17.83;6.15;;;;;;;5.28;100.00;99584.81;10189492;28;20084;-75
2022/02/18 11:09:29;;;;;;;17.98;5.45;;;;;;;5.34;100.00;99576.56;10184009;28;20503;-75
2022/02/18 11:14:25;;;;;;;18.13;5.65;;;;;;;5.33;100.00;99542.44;10195255;28;20077;-75
2022/02/18 11:19:25;;;;;;;20.50;5.45;;;;;;;5.25;100.00;99525.84;10184032;28;20069;-75
2022/02/18 11:24:45;;;;;;;17.90;7.30;;;;;;;5.23;100.00;99495.53;10185369;28;20053;-75
2022/02/18 11:29:43;;;;;;;14.70;5.35;;;;;;;5.25;100.00;99465.41;10176310;28;20467;-75
2022/02/18 11:34:39;;;;;;;19.80;7.35;;;;;;;5.27;100.00;99436.88;10190212;28;20530;-74
2022/02/18 11:40:09;;;;;;;17.60;6.65;;;;;;;5.24;100.00;99413.13;10221218;28;20099;-75
2022/02/18 11:45:16;;;;;;;18.23;8.25;;;;;;;5.17;100.00;99377.53;10210637;28;20057;-74
2022/02/18 11:50:15;;;;;;;23.33;8.93;;;;;;;5.16;100.00;99346.16;10201439;28;20077;-74
2022/02/18 11:55:33;;;;;;;34.88;9.70;;;;;;;5.17;100.00;99345.03;10182976;28;20058;-74
2022/02/18 12:00:40;;;;;;;27.42;9.98;;;;;;;5.11;100.00;99313.00;10153731;28;20089;-74
2022/02/18 12:06:09;;;;;;;26.80;8.75;;;;;;;5.11;100.00;99264.22;10170960;28;20057;-74
2022/02/18 12:11:13;;;;;;;22.40;8.73;;;;;;;5.10;100.00;99279.66;10192246;28;20078;-74
2022/02/18 12:16:11;;;;;;;24.33;9.73;;;;;;;5.22;100.00;99293.41;10184631;28;20115;-74
2022/02/18 12:21:08;;;;;;;26.83;8.82;;;;;;;5.23;100.00;99251.63;10173936;28;20128;-75
2022/02/18 12:26:16;;;;;;;24.88;7.22;;;;;;;5.22;100.00;99228.38;10179966;28;20054;-74
2022/02/18 12:31:13;;;;;;;19.02;6.32;;;;;;;5.30;100.00;99225.97;10191805;28;20050;-74
2022/02/18 12:36:12;;;;;;;14.73;5.25;;;;;;;5.33;100.00;99200.94;10186319;28;20427;-74
2022/02/18 12:41:10;;;;;;;13.05;5.65;;;;;;;5.40;100.00;99160.59;10159135;28;20054;-74
2022/02/18 12:46:08;;;;;;;14.32;5.32;;;;;;;5.48;100.00;99143.53;10172337;28;20057;-74
2022/02/18 12:51:17;;;;;;;12.88;4.30;;;;;;;5.50;100.00;99127.75;10214235;28;20056;-74
2022/02/18 12:56:25;;;;;;;12.20;5.13;;;;;;;5.54;100.00;99085.28;10179929;28;20078;-73
2022/02/18 13:01:22;;;;;;;15.30;5.35;;;;;;;5.60;100.00;99054.19;10166440;28;20054;-74
2022/02/18 13:06:20;;;;;;;19.10;5.75;;;;;;;5.66;100.00;99036.63;10172280;28;20073;-74
2022/02/18 13:11:21;;;;;;;20.73;5.65;;;;;;;5.76;100.00;99007.56;10163379;28;20053;-74
2022/02/18 13:16:19;;;;;;;17.90;5.63;;;;;;;5.83;100.00;99002.41;10149202;28;20452;-74
2022/02/18 13:21:19;;;;;;;15.63;5.07;;;;;;;5.92;100.00;98957.03;10158687;28;20129;-74
2022/02/18 13:26:16;;;;;;;18.05;5.15;;;;;;;5.99;100.00;98949.19;10191000;28;20050;-74
2022/02/18 13:31:14;;;;;;;11.15;4.43;;;;;;;6.10;100.00;98936.81;10196278;28;20045;-73
2022/02/18 13:36:14;;;;;;;16.98;4.97;;;;;;;6.19;100.00;98901.44;10166273;28;20042;-74
2022/02/18 13:41:14;;;;;;;13.75;4.32;;;;;;;6.36;100.00;98897.00;10156821;28;20105;-74
2022/02/18 13:46:27;;;;;;;13.90;4.25;;;;;;;6.57;100.00;98859.75;10177659;28;20503;-75
2022/02/18 13:51:26;;;;;;;13.27;4.45;;;;;;;6.80;100.00;98808.50;10209858;28;20451;-73
2022/02/18 13:56:31;;;;;;;11.95;3.75;;;;;;;6.97;100.00;98809.44;10185466;28;20050;-73
2022/02/18 14:01:28;;;;;;;15.63;4.07;;;;;;;7.05;100.00;98781.31;10185761;28;20073;-72
2022/02/18 14:06:31;;;;;;;11.05;3.53;;;;;;;7.12;100.00;98762.50;10180110;28;20054;-75
2022/02/18 14:11:46;;;;;;;9.45;3.38;;;;;;;7.17;100.00;98737.81;10191861;28;20046;-75
2022/02/18 14:23:06;;;;;;;9.52;3.50;;;;;;;7.31;100.00;98651.25;10162199;28;20128;-74
2022/02/18 14:28:12;;;;;;;11.43;4.57;;;;;;;7.40;100.00;98672.06;10176739;28;20050;-74
2022/02/18 14:33:29;;;;;;;14.40;3.78;;;;;;;7.43;100.00;98657.78;10158746;28;20043;-75
2022/02/18 14:38:30;;;;;;;9.35;3.00;;;;;;;7.50;100.00;98638.94;10198164;28;20049;-74
2022/02/18 14:44:01;;;;;;;9.40;3.42;;;;;;;7.56;100.00;98619.28;10184896;28;20053;-73
2022/02/18 14:48:57;;;;;;;9.88;2.95;;;;;;;7.63;100.00;98591.47;10185252;28;20061;-73
2022/02/18 14:53:55;;;;;;;11.70;3.72;;;;;;;7.67;100.00;98570.63;10181611;28;20038;-74
2022/02/18 14:58:52;;;;;;;13.80;3.70;;;;;;;7.74;100.00;98549.03;10178522;28;20046;-73
2022/02/18 15:03:48;;;;;;;7.75;3.58;;;;;;;7.80;100.00;98520.41;10173569;28;20038;-73
2022/02/18 15:08:45;;;;;;;9.48;3.35;;;;;;;7.85;100.00;98515.84;10170521;28;20096;-73
2022/02/18 15:13:41;;;;;;;10.25;3.40;;;;;;;7.88;100.00;98472.41;10181677;28;20042;-74
2022/02/18 15:18:38;;;;;;;8.10;3.28;;;;;;;7.90;100.00;98463.88;10183196;28;20046;-73
2022/02/18 15:23:36;;;;;;;9.63;3.13;;;;;;;7.96;100.00;98448.84;10161693;28;20126;-73
2022/02/18 15:28:32;;;;;;;7.90;3.28;;;;;;;8.00;100.00;98436.09;10169841;28;20042;-74
2022/02/18 15:42:07;;;;;;;9.73;4.22;;;;;;;8.10;100.00;98405.63;10182112;28;20472;-72
2022/02/18 15:44:00;;;;;;;8.32;4.00;;;;;;;8.17;100.00;98403.03;10175044;28;20104;-72
2022/02/18 15:48:57;;;;;;;13.18;4.78;;;;;;;8.21;100.00;98394.94;10173951;28;20045;-71
2022/02/18 15:53:53;;;;;;;9.68;4.05;;;;;;;8.30;100.00;98378.41;10148760;28;20080;-72
2022/02/18 15:58:50;;;;;;;9.05;4.15;;;;;;;8.41;100.00;98404.72;10172872;28;20077;-71
2022/02/18 16:03:47;;;;;;;7.45;3.92;;;;;;;8.50;100.00;98458.19;10173939;28;20042;-71
2022/02/18 16:08:43;;;;;;;8.43;3.80;;;;;;;8.54;100.00;98459.81;10180316;28;20042;-71
2022/02/18 16:13:40;;;;;;;4.18;0.80;;;;;;;8.03;100.00;98451.75;10161185;28;20092;-72
2022/02/18 16:18:36;;;;;;;5.07;0.70;;;;;;;7.82;100.00;98451.25;10190190;28;20050;-72
2022/02/18 16:23:33;;;;;;;2.05;0.60;;;;;;;7.55;100.00;98432.00;10193163;28;20119;-71
2022/02/18 16:28:29;;;;;;;1.75;0.30;;;;;;;7.37;100.00;98426.94;10178252;28;20086;-72
2022/02/18 16:33:26;;;;;;;2.78;0.50;;;;;;;7.28;100.00;98445.34;10188097;28;20100;-71
2022/02/18 16:38:22;;;;;;;2.45;0.52;;;;;;;7.22;100.00;98433.19;10187058;28;20047;-72
2022/02/18 16:43:19;;;;;;;1.27;0.32;;;;;;;7.21;100.00;98385.38;10167896;28;20551;-72
2022/02/18 16:48:15;;;;;;;3.63;0.82;;;;;;;7.26;100.00;98362.59;10171688;28;20108;-72
2022/02/18 16:53:12;;;;;;;4.15;0.57;;;;;;;7.31;100.00;98325.06;10171520;28;20096;-72
2022/02/18 16:58:08;;;;;;;4.97;0.70;;;;;;;7.28;100.00;98297.78;10165231;28;20794;-73
2022/02/18 17:03:05;;;;;;;7.07;1.20;;;;;;;7.28;100.00;98306.72;10168436;28;20049;-73
2022/02/18 17:08:01;;;;;;;11.13;1.20;;;;;;;7.38;100.00;98295.31;10157310;28;20070;-72
2022/02/18 17:12:58;;;;;;;10.27;1.35;;;;;;;7.43;100.00;98279.88;10196200;28;20107;-72
2022/02/18 17:17:55;;;;;;;9.85;1.45;;;;;;;7.43;100.00;98277.94;10171205;28;20042;-73
2022/02/18 17:22:51;;;;;;;11.65;1.63;;;;;;;7.45;100.00;98253.09;10167697;28;20538;-73
2022/02/18 17:27:48;;;;;;;8.88;1.40;;;;;;;7.52;100.00;98236.91;10178541;28;20673;-73
2022/02/18 17:32:45;;;;;;;11.93;1.42;;;;;;;7.51;100.00;98219.03;10179135;28;20073;-73
2022/02/18 17:37:43;;;;;;;8.13;1.23;;;;;;;7.47;100.00;98197.25;10186859;28;20358;-72
2022/02/18 17:42:40;;;;;;;7.68;1.40;;;;;;;7.50;100.00;98201.16;10164053;28;20088;-72
2022/02/18 17:47:37;;;;;;;7.43;1.65;;;;;;;7.63;100.00;98169.94;10175393;28;20089;-73
2022/02/18 17:52:34;;;;;;;8.57;1.90;;;;;;;7.64;100.00;98152.50;10170605;28;20497;-72
2022/02/18 17:57:31;;;;;;;13.07;1.90;;;;;;;7.49;100.00;98128.88;10174571;28;20038;-73
2022/02/18 18:02:27;;;;;;;9.02;2.35;;;;;;;7.64;100.00;98151.72;10185659;28;20140;-73
2022/02/18 18:07:25;;;;;;;10.02;2.08;;;;;;;7.58;100.00;98134.88;10184654;28;20459;-73
2022/02/18 18:12:27;;;;;;;10.38;1.80;;;;;;;7.41;100.00;98293.03;10184831;28;20046;-72
2022/02/18 18:17:25;;;;;;;13.27;2.97;;;;;;;6.98;100.00;98186.88;10172805;28;20054;-70
2022/02/18 18:22:27;;;;;;;12.15;2.10;;;;;;;6.59;100.00;98224.84;10165862;28;20042;-73
2022/02/18 18:27:24;;;;;;;11.15;2.05;;;;;;;6.38;100.00;98225.09;10166578;28;20058;-73
2022/02/18 18:32:20;;;;;;;7.75;1.00;;;;;;;6.31;100.00;98167.91;10187363;28;20241;-72
2022/02/18 18:37:17;;;;;;;10.98;2.10;;;;;;;6.26;100.00;98163.56;10177944;28;20463;-72
2022/02/18 18:42:14;;;;;;;11.98;2.15;;;;;;;6.26;100.00;98177.13;10174494;28;20041;-72
2022/02/18 18:47:11;;;;;;;9.45;2.40;;;;;;;6.38;100.00;98165.38;10175397;28;20045;-73
2022/02/18 18:52:08;;;;;;;10.40;1.55;;;;;;;6.56;100.00;98184.81;10194019;28;20046;-72
2022/02/18 18:57:04;;;;;;;11.82;1.88;;;;;;;6.61;100.00;98181.03;10172174;28;20051;-72
2022/02/18 19:02:01;;;;;;;9.20;1.83;;;;;;;6.66;100.00;98207.91;10181099;28;20042;-72
2022/02/18 19:06:58;;;;;;;14.13;2.20;;;;;;;6.66;100.00;98150.88;10184491;28;20448;-72
2022/02/18 19:11:55;;;;;;;13.73;1.92;;;;;;;6.72;100.00;98212.72;10172931;28;20074;-72
2022/02/18 19:16:52;;;;;;;14.27;2.40;;;;;;;6.83;100.00;98256.41;10181644;28;20080;-72
2022/02/18 19:21:50;;;;;;;12.02;2.08;;;;;;;6.71;100.00;98202.22;10172327;28;20057;-72
2022/02/18 19:26:48;;;;;;;8.40;2.08;;;;;;;6.72;100.00;98223.56;10172764;28;20034;-72
2022/02/18 19:31:44;;;;;;;8.25;2.13;;;;;;;6.71;100.00;98184.00;10192969;28;20038;-71
2022/02/18 19:36:42;;;;;;;7.95;1.52;;;;;;;6.62;100.00;98256.72;10199726;28;20087;-74
2022/02/18 19:41:40;;;;;;;11.18;1.52;;;;;;;6.55;100.00;98231.31;10189470;28;20053;-71
2022/02/18 19:46:37;;;;;;;8.85;1.60;;;;;;;6.45;100.00;98224.47;10172060;28;20057;-73
2022/02/18 19:51:34;;;;;;;8.35;1.65;;;;;;;6.39;100.00;98275.53;10173161;28;20046;-73
2022/02/18 19:56:30;;;;;;;15.63;1.90;;;;;;;6.33;100.00;98200.94;10183341;28;20138;-73
2022/02/18 20:01:30;;;;;;;9.02;1.88;;;;;;;6.25;100.00;98253.47;10183717;28;20045;-72
2022/02/18 20:06:27;;;;;;;6.88;1.92;;;;;;;5.93;100.00;98323.91;10159146;28;20109;-72
2022/02/18 20:11:23;;;;;;;8.32;1.67;;;;;;;5.54;100.00;98325.50;10177333;28;20045;-71
2022/02/18 20:16:20;;;;;;;11.77;1.40;;;;;;;5.26;100.00;98345.97;10172369;28;20038;-71
2022/02/18 20:21:17;;;;;;;9.35;1.27;;;;;;;5.15;100.00;98366.53;10163994;28;20465;-72
2022/02/18 20:26:13;;;;;;;8.45;1.55;;;;;;;5.17;100.00;98375.09;10170972;28;20456;-72
2022/02/18 20:31:10;;;;;;;12.10;1.25;;;;;;;5.15;100.00;98415.28;10190481;28;20466;-72
2022/02/18 20:36:07;;;;;;;8.05;1.38;;;;;;;5.24;100.00;98443.06;10188438;28;20052;-72
2022/02/18 20:41:09;;;;;;;7.30;0.77;;;;;;;5.25;100.00;98393.16;10167756;28;20066;-72
2022/02/18 20:46:06;;;;;;;13.18;1.38;;;;;;;5.20;100.00;98423.19;10180941;28;20049;-72
2022/02/18 20:51:02;;;;;;;5.00;1.40;;;;;;;5.11;100.00;98511.91;10168797;28;20073;-72
2022/02/18 20:55:59;;;;;;;9.80;0.98;;;;;;;5.11;100.00;98533.56;10149838;28;20046;-71
2022/02/18 21:00:55;;;;;;;11.13;1.83;;;;;;;4.83;100.00;98501.66;10184187;28;20046;-72
2022/02/18 21:05:52;;;;;;;4.18;0.82;;;;;;;4.60;100.00;98530.22;10185652;28;20701;-72
2022/02/18 21:10:49;;;;;;;6.50;1.15;;;;;;;4.52;100.00;98502.09;10171821;28;20073;-72
2022/02/18 21:16:06;;;;;;;4.53;0.77;;;;;;;4.00;100.00;98497.09;10163523;28;20443;-71
2022/02/18 21:21:02;;;;;;;3.38;0.80;;;;;;;3.85;100.00;98522.75;10187250;28;20109;-71
2022/02/18 21:25:59;;;;;;;8.05;1.33;;;;;;;3.87;100.00;98531.34;10179771;28;20169;-68
2022/02/18 21:30:56;;;;;;;7.80;1.48;;;;;;;3.79;100.00;98545.72;10174303;28;20527;-70
2022/02/18 21:35:53;;;;;;;11.55;1.73;;;;;;;3.68;100.00;98545.28;10186910;28;20136;-69
2022/02/18 21:40:49;;;;;;;8.38;1.17;;;;;;;3.61;100.00;98566.59;10193060;28;20042;-72
2022/02/18 21:45:46;;;;;;;9.00;1.60;;;;;;;3.65;100.00;98518.91;10158391;28;20054;-69
2022/02/18 21:50:42;;;;;;;10.85;1.92;;;;;;;3.82;100.00;98572.06;10153794;28;20169;-67
2022/02/18 21:55:39;;;;;;;9.30;1.40;;;;;;;4.06;100.00;98522.00;10171228;28;20149;-69
2022/02/18 22:00:36;;;;;;;6.68;1.63;;;;;;;4.51;100.00;98526.78;10176407;28;20038;-65
2022/02/18 22:05:33;;;;;;;6.75;1.30;;;;;;;4.49;100.00;98519.00;10199316;28;20044;-62
2022/02/18 22:10:29;;;;;;;8.52;1.42;;;;;;;4.63;100.00;98459.19;10180692;28;20081;-67
2022/02/18 22:15:26;;;;;;;9.25;1.50;;;;;;;4.68;100.00;98518.50;10177213;28;20444;-67
2022/02/18 22:20:22;;;;;;;8.05;1.65;;;;;;;4.72;100.00;98581.72;10172617;28;20087;-64
2022/02/18 22:25:19;;;;;;;9.30;1.30;;;;;;;4.72;100.00;98537.59;10171358;28;20101;-66
2022/02/18 22:30:16;;;;;;;14.85;1.80;;;;;;;4.80;100.00;98518.59;10181726;28;20553;-66
2022/02/18 22:35:12;;;;;;;14.43;2.88;;;;;;;4.85;100.00;98545.44;10174901;28;20046;-66
2022/02/18 22:40:10;;;;;;;9.95;1.50;;;;;;;4.95;100.00;98605.75;10184097;28;20724;-68
2022/02/18 22:45:08;;;;;;;7.38;1.58;;;;;;;4.96;100.00;98613.50;10190862;28;20125;-69
2022/02/18 22:50:05;;;;;;;14.68;3.17;;;;;;;4.92;100.00;98514.31;10208863;28;20057;-67
2022/02/18 22:55:02;;;;;;;11.68;2.05;;;;;;;4.98;100.00;98577.97;10194762;28;20104;-67
2022/02/18 23:00:00;;;;;;;10.77;1.75;;;;;;;5.01;100.00;98555.63;10192871;28;20054;-63
2022/02/18 23:04:56;;;;;;;10.27;1.23;;;;;;;5.10;100.00;98610.53;10188251;28;20518;-64